sensor_id;sensor_type;location;lat;lon;timestamp;P1;durP1;ratioP1;P2;durP2;ratioP2
28652;SDS011;15844;48.954;9.442;2022-07-10T00:00:15;140.50;;;133.70;;
28652;SDS011;15844;48.954;9.442;2022-07-10T00:03:18;134.25;;;127.57;;
28652;SDS011;15844;48.954;9.442;2022-07-10T00:06:18;137.63;;;130.90;;
28652;SDS011;15844;48.954;9.442;2022-07-10T00:09:19;134.65;;;128.02;;
28652;SDS011;15844;48.954;9.442;2022-07-10T00:12:19;136.13;;;129.18;;
28652;SDS011;15844;48.954;9.442;2022-07-10T00:15:19;145.13;;;138.18;;
28652;SDS011;15844;48.954;9.442;2022-07-10T00:18:20;131.85;;;125.40;;
28652;SDS011;15844;48.954;9.442;2022-07-10T00:21:21;131.15;;;124.85;;
28652;SDS011;15844;48.954;9.442;2022-07-10T00:24:22;98.97;;;94.28;;
28652;SDS011;15844;48.954;9.442;2022-07-10T00:27:22;103.80;;;98.78;;
28652;SDS011;15844;48.954;9.442;2022-07-10T00:30:23;86.53;;;82.13;;
28652;SDS011;15844;48.954;9.442;2022-07-10T00:33:23;77.57;;;73.82;;
28652;SDS011;15844;48.954;9.442;2022-07-10T00:36:24;66.55;;;63.28;;
28652;SDS011;15844;48.954;9.442;2022-07-10T00:39:24;72.03;;;68.50;;
28652;SDS011;15844;48.954;9.442;2022-07-10T00:42:25;54.90;;;52.30;;
28652;SDS011;15844;48.954;9.442;2022-07-10T00:45:25;35.60;;;34.00;;
28652;SDS011;15844;48.954;9.442;2022-07-10T00:48:26;39.45;;;37.65;;
28652;SDS011;15844;48.954;9.442;2022-07-10T00:51:27;31.95;;;30.55;;
28652;SDS011;15844;48.954;9.442;2022-07-10T00:54:29;46.67;;;44.45;;
28652;SDS011;15844;48.954;9.442;2022-07-10T00:57:30;38.50;;;36.78;;
28652;SDS011;15844;48.954;9.442;2022-07-10T01:00:32;27.77;;;26.60;;
28652;SDS011;15844;48.954;9.442;2022-07-10T01:03:32;34.45;;;32.90;;
28652;SDS011;15844;48.954;9.442;2022-07-10T01:06:33;28.23;;;27.02;;
28652;SDS011;15844;48.954;9.442;2022-07-10T01:09:33;32.08;;;30.60;;
28652;SDS011;15844;48.954;9.442;2022-07-10T01:12:34;39.70;;;37.85;;
28652;SDS011;15844;48.954;9.442;2022-07-10T01:15:34;48.03;;;45.60;;
28652;SDS011;15844;48.954;9.442;2022-07-10T01:18:36;65.72;;;62.60;;
28652;SDS011;15844;48.954;9.442;2022-07-10T01:21:36;73.30;;;69.68;;
28652;SDS011;15844;48.954;9.442;2022-07-10T01:24:37;35.85;;;33.95;;
28652;SDS011;15844;48.954;9.442;2022-07-10T01:27:37;41.45;;;39.53;;
28652;SDS011;15844;48.954;9.442;2022-07-10T01:30:38;42.67;;;40.70;;
28652;SDS011;15844;48.954;9.442;2022-07-10T01:33:38;31.02;;;29.52;;
28652;SDS011;15844;48.954;9.442;2022-07-10T01:36:38;30.17;;;28.73;;
28652;SDS011;15844;48.954;9.442;2022-07-10T01:39:39;25.48;;;24.38;;
28652;SDS011;15844;48.954;9.442;2022-07-10T01:42:40;23.52;;;22.20;;
28652;SDS011;15844;48.954;9.442;2022-07-10T01:45:40;21.73;;;20.73;;
28652;SDS011;15844;48.954;9.442;2022-07-10T01:48:40;26.55;;;25.40;;
28652;SDS011;15844;48.954;9.442;2022-07-10T01:51:41;17.90;;;17.10;;
28652;SDS011;15844;48.954;9.442;2022-07-10T01:54:42;17.63;;;16.90;;
28652;SDS011;15844;48.954;9.442;2022-07-10T01:57:42;20.38;;;19.40;;
28652;SDS011;15844;48.954;9.442;2022-07-10T02:00:43;18.90;;;18.00;;
28652;SDS011;15844;48.954;9.442;2022-07-10T02:03:45;16.80;;;16.10;;
28652;SDS011;15844;48.954;9.442;2022-07-10T02:07:04;17.75;;;17.02;;
28652;SDS011;15844;48.954;9.442;2022-07-10T02:10:04;16.88;;;16.17;;
28652;SDS011;15844;48.954;9.442;2022-07-10T02:13:05;25.48;;;24.27;;
28652;SDS011;15844;48.954;9.442;2022-07-10T02:16:05;27.55;;;26.23;;
28652;SDS011;15844;48.954;9.442;2022-07-10T02:19:06;20.73;;;19.73;;
28652;SDS011;15844;48.954;9.442;2022-07-10T02:22:06;21.45;;;20.55;;
28652;SDS011;15844;48.954;9.442;2022-07-10T02:25:07;23.23;;;22.17;;
28652;SDS011;15844;48.954;9.442;2022-07-10T02:28:08;22.27;;;21.23;;
28652;SDS011;15844;48.954;9.442;2022-07-10T02:31:08;21.00;;;20.13;;
28652;SDS011;15844;48.954;9.442;2022-07-10T02:34:10;19.00;;;18.13;;
28652;SDS011;15844;48.954;9.442;2022-07-10T02:37:11;20.95;;;20.05;;
28652;SDS011;15844;48.954;9.442;2022-07-10T02:40:11;21.10;;;20.25;;
28652;SDS011;15844;48.954;9.442;2022-07-10T02:43:11;25.35;;;24.08;;
28652;SDS011;15844;48.954;9.442;2022-07-10T02:46:12;27.98;;;26.70;;
28652;SDS011;15844;48.954;9.442;2022-07-10T02:49:12;25.60;;;24.48;;
28652;SDS011;15844;48.954;9.442;2022-07-10T02:52:12;23.30;;;22.02;;
28652;SDS011;15844;48.954;9.442;2022-07-10T02:55:13;27.35;;;26.17;;
28652;SDS011;15844;48.954;9.442;2022-07-10T02:58:13;28.85;;;27.55;;
28652;SDS011;15844;48.954;9.442;2022-07-10T03:01:15;24.23;;;23.23;;
28652;SDS011;15844;48.954;9.442;2022-07-10T03:04:15;27.40;;;26.20;;
28652;SDS011;15844;48.954;9.442;2022-07-10T03:07:16;27.75;;;26.45;;
28652;SDS011;15844;48.954;9.442;2022-07-10T03:10:16;22.42;;;21.35;;
28652;SDS011;15844;48.954;9.442;2022-07-10T03:13:16;25.17;;;24.13;;
28652;SDS011;15844;48.954;9.442;2022-07-10T03:16:17;22.73;;;21.80;;
28652;SDS011;15844;48.954;9.442;2022-07-10T03:19:17;22.85;;;21.80;;
28652;SDS011;15844;48.954;9.442;2022-07-10T03:22:17;21.63;;;20.63;;
28652;SDS011;15844;48.954;9.442;2022-07-10T03:25:18;23.05;;;22.02;;
28652;SDS011;15844;48.954;9.442;2022-07-10T03:28:18;19.77;;;18.92;;
28652;SDS011;15844;48.954;9.442;2022-07-10T03:31:18;14.93;;;14.32;;
28652;SDS011;15844;48.954;9.442;2022-07-10T03:34:18;15.48;;;14.77;;
28652;SDS011;15844;48.954;9.442;2022-07-10T03:37:19;15.40;;;14.38;;
28652;SDS011;15844;48.954;9.442;2022-07-10T03:40:19;15.75;;;14.63;;
28652;SDS011;15844;48.954;9.442;2022-07-10T03:43:20;14.57;;;14.07;;
28652;SDS011;15844;48.954;9.442;2022-07-10T03:46:20;14.45;;;13.85;;
28652;SDS011;15844;48.954;9.442;2022-07-10T03:49:21;14.65;;;14.13;;
28652;SDS011;15844;48.954;9.442;2022-07-10T03:52:21;14.88;;;14.32;;
28652;SDS011;15844;48.954;9.442;2022-07-10T03:55:21;15.05;;;14.45;;
28652;SDS011;15844;48.954;9.442;2022-07-10T03:58:22;14.50;;;13.88;;
28652;SDS011;15844;48.954;9.442;2022-07-10T04:01:22;14.43;;;13.82;;
28652;SDS011;15844;48.954;9.442;2022-07-10T04:04:22;14.20;;;13.55;;
28652;SDS011;15844;48.954;9.442;2022-07-10T04:07:23;15.15;;;14.55;;
28652;SDS011;15844;48.954;9.442;2022-07-10T04:10:24;14.40;;;13.70;;
28652;SDS011;15844;48.954;9.442;2022-07-10T04:13:25;14.00;;;13.50;;
28652;SDS011;15844;48.954;9.442;2022-07-10T04:16:25;14.20;;;13.50;;
28652;SDS011;15844;48.954;9.442;2022-07-10T04:19:26;12.88;;;12.27;;
28652;SDS011;15844;48.954;9.442;2022-07-10T04:22:26;14.15;;;13.65;;
28652;SDS011;15844;48.954;9.442;2022-07-10T04:25:27;13.07;;;12.48;;
28652;SDS011;15844;48.954;9.442;2022-07-10T04:28:27;14.70;;;14.02;;
28652;SDS011;15844;48.954;9.442;2022-07-10T04:31:28;12.95;;;12.35;;
28652;SDS011;15844;48.954;9.442;2022-07-10T04:34:28;14.02;;;13.43;;
28652;SDS011;15844;48.954;9.442;2022-07-10T04:37:28;16.08;;;15.13;;
28652;SDS011;15844;48.954;9.442;2022-07-10T04:40:29;15.50;;;14.48;;
28652;SDS011;15844;48.954;9.442;2022-07-10T04:43:29;14.73;;;14.07;;
28652;SDS011;15844;48.954;9.442;2022-07-10T04:46:30;13.60;;;13.05;;
28652;SDS011;15844;48.954;9.442;2022-07-10T04:49:31;14.32;;;13.73;;
28652;SDS011;15844;48.954;9.442;2022-07-10T04:52:31;16.10;;;15.30;;
28652;SDS011;15844;48.954;9.442;2022-07-10T04:55:32;16.30;;;15.60;;
28652;SDS011;15844;48.954;9.442;2022-07-10T04:58:32;15.15;;;14.60;;
28652;SDS011;15844;48.954;9.442;2022-07-10T05:01:33;14.60;;;13.90;;
28652;SDS011;15844;48.954;9.442;2022-07-10T05:04:33;14.52;;;13.73;;
28652;SDS011;15844;48.954;9.442;2022-07-10T05:07:34;14.65;;;13.85;;
28652;SDS011;15844;48.954;9.442;2022-07-10T05:10:34;14.52;;;13.93;;
28652;SDS011;15844;48.954;9.442;2022-07-10T05:13:34;14.82;;;14.07;;
28652;SDS011;15844;48.954;9.442;2022-07-10T05:16:35;14.27;;;13.77;;
28652;SDS011;15844;48.954;9.442;2022-07-10T05:19:35;14.43;;;13.82;;
28652;SDS011;15844;48.954;9.442;2022-07-10T05:22:35;14.10;;;13.50;;
28652;SDS011;15844;48.954;9.442;2022-07-10T05:25:36;18.17;;;17.38;;
28652;SDS011;15844;48.954;9.442;2022-07-10T05:28:37;17.65;;;16.88;;
28652;SDS011;15844;48.954;9.442;2022-07-10T05:31:37;15.63;;;15.00;;
28652;SDS011;15844;48.954;9.442;2022-07-10T05:34:38;14.63;;;14.13;;
28652;SDS011;15844;48.954;9.442;2022-07-10T05:37:38;15.98;;;15.20;;
28652;SDS011;15844;48.954;9.442;2022-07-10T05:40:38;14.30;;;13.80;;
28652;SDS011;15844;48.954;9.442;2022-07-10T05:43:39;15.68;;;14.93;;
28652;SDS011;15844;48.954;9.442;2022-07-10T05:46:39;13.82;;;13.05;;
28652;SDS011;15844;48.954;9.442;2022-07-10T05:49:39;18.58;;;17.77;;
28652;SDS011;15844;48.954;9.442;2022-07-10T05:52:40;13.30;;;12.80;;
28652;SDS011;15844;48.954;9.442;2022-07-10T05:55:40;15.73;;;15.20;;
28652;SDS011;15844;48.954;9.442;2022-07-10T05:58:41;32.92;;;31.48;;
28652;SDS011;15844;48.954;9.442;2022-07-10T06:01:41;31.05;;;29.70;;
28652;SDS011;15844;48.954;9.442;2022-07-10T06:04:41;74.07;;;70.57;;
28652;SDS011;15844;48.954;9.442;2022-07-10T06:07:42;115.25;;;109.63;;
28652;SDS011;15844;48.954;9.442;2022-07-10T06:10:42;133.10;;;126.47;;
28652;SDS011;15844;48.954;9.442;2022-07-10T06:13:46;96.00;;;91.35;;
28652;SDS011;15844;48.954;9.442;2022-07-10T06:16:46;67.60;;;64.47;;
28652;SDS011;15844;48.954;9.442;2022-07-10T06:19:47;47.95;;;45.58;;
28652;SDS011;15844;48.954;9.442;2022-07-10T06:22:47;40.85;;;38.78;;
28652;SDS011;15844;48.954;9.442;2022-07-10T06:25:47;55.53;;;52.75;;
28652;SDS011;15844;48.954;9.442;2022-07-10T06:28:49;46.95;;;44.80;;
28652;SDS011;15844;48.954;9.442;2022-07-10T06:31:49;36.15;;;34.55;;
28652;SDS011;15844;48.954;9.442;2022-07-10T06:34:50;31.80;;;30.38;;
28652;SDS011;15844;48.954;9.442;2022-07-10T06:37:51;43.45;;;41.55;;
28652;SDS011;15844;48.954;9.442;2022-07-10T06:40:52;33.78;;;32.22;;
28652;SDS011;15844;48.954;9.442;2022-07-10T06:43:52;30.10;;;28.70;;
28652;SDS011;15844;48.954;9.442;2022-07-10T06:46:53;30.30;;;29.02;;
28652;SDS011;15844;48.954;9.442;2022-07-10T06:50:12;26.77;;;25.67;;
28652;SDS011;15844;48.954;9.442;2022-07-10T06:53:12;27.08;;;26.00;;
28652;SDS011;15844;48.954;9.442;2022-07-10T06:56:13;26.42;;;25.25;;
28652;SDS011;15844;48.954;9.442;2022-07-10T06:59:15;24.75;;;23.83;;
28652;SDS011;15844;48.954;9.442;2022-07-10T07:02:16;20.80;;;20.05;;
28652;SDS011;15844;48.954;9.442;2022-07-10T07:05:16;23.20;;;22.15;;
28652;SDS011;15844;48.954;9.442;2022-07-10T07:08:17;22.90;;;21.80;;
28652;SDS011;15844;48.954;9.442;2022-07-10T07:11:17;23.73;;;22.67;;
28652;SDS011;15844;48.954;9.442;2022-07-10T07:14:17;19.58;;;18.83;;
28652;SDS011;15844;48.954;9.442;2022-07-10T07:17:17;18.38;;;17.75;;
28652;SDS011;15844;48.954;9.442;2022-07-10T07:20:34;24.63;;;23.73;;
28652;SDS011;15844;48.954;9.442;2022-07-10T07:23:54;23.60;;;22.27;;
28652;SDS011;15844;48.954;9.442;2022-07-10T07:26:54;21.52;;;20.52;;
28652;SDS011;15844;48.954;9.442;2022-07-10T07:29:54;27.90;;;26.73;;
28652;SDS011;15844;48.954;9.442;2022-07-10T07:32:55;25.20;;;24.08;;
28652;SDS011;15844;48.954;9.442;2022-07-10T07:35:55;26.02;;;24.98;;
28652;SDS011;15844;48.954;9.442;2022-07-10T07:38:55;23.92;;;23.00;;
28652;SDS011;15844;48.954;9.442;2022-07-10T07:41:56;22.27;;;21.35;;
28652;SDS011;15844;48.954;9.442;2022-07-10T07:44:56;26.42;;;25.38;;
28652;SDS011;15844;48.954;9.442;2022-07-10T07:47:57;21.48;;;20.50;;
28652;SDS011;15844;48.954;9.442;2022-07-10T07:50:59;23.40;;;22.27;;
28652;SDS011;15844;48.954;9.442;2022-07-10T07:53:59;27.23;;;26.08;;
28652;SDS011;15844;48.954;9.442;2022-07-10T07:57:00;25.67;;;24.60;;
28652;SDS011;15844;48.954;9.442;2022-07-10T08:00:00;25.25;;;24.25;;
28652;SDS011;15844;48.954;9.442;2022-07-10T08:03:01;22.75;;;21.92;;
28652;SDS011;15844;48.954;9.442;2022-07-10T08:06:04;24.17;;;23.20;;
28652;SDS011;15844;48.954;9.442;2022-07-10T08:09:05;22.83;;;21.98;;
28652;SDS011;15844;48.954;9.442;2022-07-10T08:12:06;22.95;;;21.77;;
28652;SDS011;15844;48.954;9.442;2022-07-10T08:15:07;20.95;;;20.02;;
28652;SDS011;15844;48.954;9.442;2022-07-10T08:18:08;26.48;;;25.38;;
28652;SDS011;15844;48.954;9.442;2022-07-10T08:21:08;22.02;;;21.20;;
28652;SDS011;15844;48.954;9.442;2022-07-10T08:24:08;27.02;;;25.83;;
28652;SDS011;15844;48.954;9.442;2022-07-10T08:27:09;23.08;;;22.02;;
28652;SDS011;15844;48.954;9.442;2022-07-10T08:30:09;22.08;;;21.17;;
28652;SDS011;15844;48.954;9.442;2022-07-10T08:33:10;20.30;;;19.55;;
28652;SDS011;15844;48.954;9.442;2022-07-10T08:36:11;21.42;;;20.42;;
28652;SDS011;15844;48.954;9.442;2022-07-10T08:39:11;18.33;;;17.63;;
28652;SDS011;15844;48.954;9.442;2022-07-10T08:42:12;19.58;;;18.83;;
28652;SDS011;15844;48.954;9.442;2022-07-10T08:45:13;15.93;;;15.20;;
28652;SDS011;15844;48.954;9.442;2022-07-10T08:48:13;15.50;;;15.00;;
28652;SDS011;15844;48.954;9.442;2022-07-10T08:51:18;15.40;;;14.90;;
28652;SDS011;15844;48.954;9.442;2022-07-10T08:54:23;15.00;;;14.50;;
28652;SDS011;15844;48.954;9.442;2022-07-10T08:57:26;14.98;;;14.20;;
28652;SDS011;15844;48.954;9.442;2022-07-10T09:00:26;15.75;;;15.23;;
28652;SDS011;15844;48.954;9.442;2022-07-10T09:03:27;14.27;;;13.75;;
28652;SDS011;15844;48.954;9.442;2022-07-10T09:06:29;14.27;;;13.77;;
28652;SDS011;15844;48.954;9.442;2022-07-10T09:09:30;15.13;;;14.38;;
28652;SDS011;15844;48.954;9.442;2022-07-10T09:12:31;12.85;;;12.45;;
28652;SDS011;15844;48.954;9.442;2022-07-10T09:15:49;13.10;;;12.65;;
28652;SDS011;15844;48.954;9.442;2022-07-10T09:18:50;13.57;;;13.15;;
28652;SDS011;15844;48.954;9.442;2022-07-10T09:21:52;19.92;;;19.20;;
28652;SDS011;15844;48.954;9.442;2022-07-10T09:24:53;21.42;;;20.52;;
28652;SDS011;15844;48.954;9.442;2022-07-10T09:27:53;22.17;;;21.27;;
28652;SDS011;15844;48.954;9.442;2022-07-10T09:30:54;19.58;;;18.77;;
28652;SDS011;15844;48.954;9.442;2022-07-10T09:33:54;19.58;;;18.83;;
28652;SDS011;15844;48.954;9.442;2022-07-10T09:36:55;17.38;;;16.77;;
28652;SDS011;15844;48.954;9.442;2022-07-10T09:39:56;17.15;;;16.45;;
28652;SDS011;15844;48.954;9.442;2022-07-10T09:42:57;16.70;;;15.93;;
28652;SDS011;15844;48.954;9.442;2022-07-10T09:45:59;17.08;;;16.48;;
28652;SDS011;15844;48.954;9.442;2022-07-10T09:49:02;15.50;;;14.98;;
28652;SDS011;15844;48.954;9.442;2022-07-10T09:52:07;16.05;;;15.43;;
28652;SDS011;15844;48.954;9.442;2022-07-10T09:55:07;17.33;;;16.63;;
28652;SDS011;15844;48.954;9.442;2022-07-10T09:58:08;18.77;;;18.05;;
28652;SDS011;15844;48.954;9.442;2022-07-10T10:01:09;24.98;;;24.00;;
28652;SDS011;15844;48.954;9.442;2022-07-10T10:04:09;26.35;;;25.33;;
28652;SDS011;15844;48.954;9.442;2022-07-10T10:07:11;25.70;;;24.45;;
28652;SDS011;15844;48.954;9.442;2022-07-10T10:10:12;22.35;;;21.45;;
28652;SDS011;15844;48.954;9.442;2022-07-10T10:13:15;21.85;;;20.88;;
28652;SDS011;15844;48.954;9.442;2022-07-10T10:16:19;20.30;;;19.58;;
28652;SDS011;15844;48.954;9.442;2022-07-10T10:19:20;26.10;;;24.90;;
28652;SDS011;15844;48.954;9.442;2022-07-10T10:22:42;30.60;;;29.27;;
28652;SDS011;15844;48.954;9.442;2022-07-10T10:25:44;23.38;;;22.25;;
28652;SDS011;15844;48.954;9.442;2022-07-10T10:28:44;20.85;;;20.05;;
28652;SDS011;15844;48.954;9.442;2022-07-10T10:31:45;19.40;;;18.77;;
28652;SDS011;15844;48.954;9.442;2022-07-10T10:34:48;22.58;;;21.73;;
28652;SDS011;15844;48.954;9.442;2022-07-10T10:37:59;26.45;;;25.35;;
28652;SDS011;15844;48.954;9.442;2022-07-10T10:41:21;20.60;;;19.90;;
28652;SDS011;15844;48.954;9.442;2022-07-10T10:44:27;21.50;;;20.60;;
28652;SDS011;15844;48.954;9.442;2022-07-10T10:47:53;19.92;;;19.23;;
28652;SDS011;15844;48.954;9.442;2022-07-10T10:50:57;20.48;;;19.67;;
28652;SDS011;15844;48.954;9.442;2022-07-10T10:54:04;16.98;;;16.38;;
28652;SDS011;15844;48.954;9.442;2022-07-10T10:57:15;16.77;;;16.05;;
28652;SDS011;15844;48.954;9.442;2022-07-10T11:00:29;16.27;;;15.77;;
28652;SDS011;15844;48.954;9.442;2022-07-10T11:03:33;14.73;;;14.13;;
28652;SDS011;15844;48.954;9.442;2022-07-10T11:06:47;14.32;;;13.93;;
28652;SDS011;15844;48.954;9.442;2022-07-10T11:09:48;14.82;;;14.20;;
28652;SDS011;15844;48.954;9.442;2022-07-10T11:16:11;16.50;;;16.00;;
28652;SDS011;15844;48.954;9.442;2022-07-10T11:19:12;17.60;;;17.08;;
28652;SDS011;15844;48.954;9.442;2022-07-10T11:22:18;21.55;;;20.70;;
28652;SDS011;15844;48.954;9.442;2022-07-10T11:25:39;20.70;;;19.95;;
28652;SDS011;15844;48.954;9.442;2022-07-10T11:28:54;20.30;;;19.45;;
28652;SDS011;15844;48.954;9.442;2022-07-10T11:31:55;15.45;;;14.85;;
28652;SDS011;15844;48.954;9.442;2022-07-10T11:34:56;16.38;;;15.77;;
28652;SDS011;15844;48.954;9.442;2022-07-10T11:37:57;18.60;;;18.00;;
28652;SDS011;15844;48.954;9.442;2022-07-10T11:40:57;23.05;;;22.15;;
28652;SDS011;15844;48.954;9.442;2022-07-10T11:43:58;20.27;;;19.50;;
28652;SDS011;15844;48.954;9.442;2022-07-10T11:47:00;15.38;;;14.88;;
28652;SDS011;15844;48.954;9.442;2022-07-10T11:50:02;13.77;;;13.38;;
28652;SDS011;15844;48.954;9.442;2022-07-10T11:53:03;14.15;;;13.57;;
28652;SDS011;15844;48.954;9.442;2022-07-10T11:56:05;13.95;;;13.43;;
28652;SDS011;15844;48.954;9.442;2022-07-10T11:59:08;14.65;;;14.00;;
28652;SDS011;15844;48.954;9.442;2022-07-10T12:02:10;15.70;;;15.10;;
28652;SDS011;15844;48.954;9.442;2022-07-10T12:05:28;21.33;;;20.52;;
28652;SDS011;15844;48.954;9.442;2022-07-10T12:08:47;20.35;;;19.65;;
28652;SDS011;15844;48.954;9.442;2022-07-10T12:11:58;17.58;;;16.92;;
28652;SDS011;15844;48.954;9.442;2022-07-10T12:15:03;15.13;;;14.63;;
28652;SDS011;15844;48.954;9.442;2022-07-10T12:18:04;12.43;;;12.05;;
28652;SDS011;15844;48.954;9.442;2022-07-10T12:21:05;13.70;;;13.30;;
28652;SDS011;15844;48.954;9.442;2022-07-10T12:24:06;17.08;;;16.48;;
28652;SDS011;15844;48.954;9.442;2022-07-10T12:27:07;17.95;;;17.27;;
28652;SDS011;15844;48.954;9.442;2022-07-10T12:30:09;17.35;;;16.75;;
28652;SDS011;15844;48.954;9.442;2022-07-10T12:33:18;14.32;;;13.93;;
28652;SDS011;15844;48.954;9.442;2022-07-10T12:36:19;15.23;;;14.70;;
28652;SDS011;15844;48.954;9.442;2022-07-10T12:39:21;14.90;;;14.38;;
28652;SDS011;15844;48.954;9.442;2022-07-10T12:42:24;20.38;;;19.60;;
28652;SDS011;15844;48.954;9.442;2022-07-10T12:45:25;16.95;;;16.38;;
28652;SDS011;15844;48.954;9.442;2022-07-10T12:48:25;14.35;;;13.95;;
28652;SDS011;15844;48.954;9.442;2022-07-10T12:51:27;19.08;;;18.38;;
28652;SDS011;15844;48.954;9.442;2022-07-10T12:54:38;19.20;;;18.50;;
28652;SDS011;15844;48.954;9.442;2022-07-10T13:00:51;15.70;;;15.20;;
28652;SDS011;15844;48.954;9.442;2022-07-10T13:03:58;19.55;;;18.83;;
28652;SDS011;15844;48.954;9.442;2022-07-10T13:07:12;21.27;;;20.48;;
28652;SDS011;15844;48.954;9.442;2022-07-10T13:10:13;19.45;;;18.73;;
28652;SDS011;15844;48.954;9.442;2022-07-10T13:13:14;16.20;;;15.70;;
28652;SDS011;15844;48.954;9.442;2022-07-10T13:16:14;17.00;;;16.40;;
28652;SDS011;15844;48.954;9.442;2022-07-10T13:19:15;20.25;;;19.55;;
28652;SDS011;15844;48.954;9.442;2022-07-10T13:22:16;14.25;;;13.80;;
28652;SDS011;15844;48.954;9.442;2022-07-10T13:25:17;13.40;;;13.00;;
28652;SDS011;15844;48.954;9.442;2022-07-10T13:28:17;15.35;;;14.85;;
28652;SDS011;15844;48.954;9.442;2022-07-10T13:31:18;20.50;;;19.70;;
28652;SDS011;15844;48.954;9.442;2022-07-10T13:34:18;22.42;;;21.63;;
28652;SDS011;15844;48.954;9.442;2022-07-10T13:37:18;21.90;;;21.13;;
28652;SDS011;15844;48.954;9.442;2022-07-10T13:40:19;19.70;;;18.88;;
28652;SDS011;15844;48.954;9.442;2022-07-10T13:43:19;15.27;;;14.75;;
28652;SDS011;15844;48.954;9.442;2022-07-10T13:46:21;16.38;;;15.77;;
28652;SDS011;15844;48.954;9.442;2022-07-10T13:49:21;18.90;;;18.30;;
28652;SDS011;15844;48.954;9.442;2022-07-10T13:52:22;17.65;;;17.05;;
28652;SDS011;15844;48.954;9.442;2022-07-10T13:55:23;18.63;;;17.92;;
28652;SDS011;15844;48.954;9.442;2022-07-10T13:58:24;16.83;;;16.33;;
28652;SDS011;15844;48.954;9.442;2022-07-10T14:01:24;16.15;;;15.55;;
28652;SDS011;15844;48.954;9.442;2022-07-10T14:04:24;14.27;;;13.68;;
28652;SDS011;15844;48.954;9.442;2022-07-10T14:07:25;17.05;;;16.35;;
28652;SDS011;15844;48.954;9.442;2022-07-10T14:10:25;16.77;;;16.17;;
28652;SDS011;15844;48.954;9.442;2022-07-10T14:13:26;15.80;;;15.27;;
28652;SDS011;15844;48.954;9.442;2022-07-10T14:16:26;19.10;;;18.40;;
28652;SDS011;15844;48.954;9.442;2022-07-10T14:19:27;20.00;;;19.00;;
28652;SDS011;15844;48.954;9.442;2022-07-10T14:22:27;15.02;;;14.63;;
28652;SDS011;15844;48.954;9.442;2022-07-10T14:25:28;16.58;;;16.08;;
28652;SDS011;15844;48.954;9.442;2022-07-10T14:28:28;16.35;;;15.82;;
28652;SDS011;15844;48.954;9.442;2022-07-10T14:31:29;16.05;;;15.55;;
28652;SDS011;15844;48.954;9.442;2022-07-10T14:34:29;17.90;;;17.30;;
28652;SDS011;15844;48.954;9.442;2022-07-10T14:37:29;18.05;;;17.45;;
28652;SDS011;15844;48.954;9.442;2022-07-10T14:40:30;21.05;;;20.25;;
28652;SDS011;15844;48.954;9.442;2022-07-10T14:43:30;19.20;;;18.50;;
28652;SDS011;15844;48.954;9.442;2022-07-10T14:46:33;16.97;;;16.30;;
28652;SDS011;15844;48.954;9.442;2022-07-10T14:49:34;11.43;;;11.13;;
28652;SDS011;15844;48.954;9.442;2022-07-10T14:52:34;12.32;;;11.93;;
28652;SDS011;15844;48.954;9.442;2022-07-10T14:55:36;11.90;;;11.55;;
28652;SDS011;15844;48.954;9.442;2022-07-10T14:58:37;14.15;;;13.65;;
28652;SDS011;15844;48.954;9.442;2022-07-10T15:01:37;14.75;;;14.35;;
28652;SDS011;15844;48.954;9.442;2022-07-10T15:04:38;12.40;;;12.00;;
28652;SDS011;15844;48.954;9.442;2022-07-10T15:07:38;10.75;;;10.45;;
28652;SDS011;15844;48.954;9.442;2022-07-10T15:10:38;11.10;;;10.80;;
28652;SDS011;15844;48.954;9.442;2022-07-10T15:13:41;10.90;;;10.40;;
28652;SDS011;15844;48.954;9.442;2022-07-10T15:16:41;12.02;;;11.63;;
28652;SDS011;15844;48.954;9.442;2022-07-10T15:19:42;11.88;;;11.48;;
28652;SDS011;15844;48.954;9.442;2022-07-10T15:22:43;11.73;;;11.32;;
28652;SDS011;15844;48.954;9.442;2022-07-10T15:25:43;11.20;;;10.85;;
28652;SDS011;15844;48.954;9.442;2022-07-10T15:28:44;11.18;;;10.82;;
28652;SDS011;15844;48.954;9.442;2022-07-10T15:31:44;11.50;;;11.20;;
28652;SDS011;15844;48.954;9.442;2022-07-10T15:34:44;12.00;;;11.68;;
28652;SDS011;15844;48.954;9.442;2022-07-10T15:37:45;11.13;;;10.63;;
28652;SDS011;15844;48.954;9.442;2022-07-10T15:40:45;13.00;;;12.60;;
28652;SDS011;15844;48.954;9.442;2022-07-10T15:43:45;11.60;;;11.30;;
28652;SDS011;15844;48.954;9.442;2022-07-10T15:46:46;11.45;;;11.05;;
28652;SDS011;15844;48.954;9.442;2022-07-10T15:49:46;11.77;;;11.43;;
28652;SDS011;15844;48.954;9.442;2022-07-10T15:52:46;12.02;;;11.70;;
28652;SDS011;15844;48.954;9.442;2022-07-10T15:55:47;11.23;;;10.93;;
28652;SDS011;15844;48.954;9.442;2022-07-10T15:58:47;11.90;;;11.50;;
28652;SDS011;15844;48.954;9.442;2022-07-10T16:01:49;11.38;;;11.07;;
28652;SDS011;15844;48.954;9.442;2022-07-10T16:04:53;13.40;;;12.88;;
28652;SDS011;15844;48.954;9.442;2022-07-10T16:07:53;13.90;;;13.50;;
28652;SDS011;15844;48.954;9.442;2022-07-10T16:10:53;14.73;;;14.23;;
28652;SDS011;15844;48.954;9.442;2022-07-10T16:13:53;14.40;;;13.82;;
28652;SDS011;15844;48.954;9.442;2022-07-10T16:16:54;12.98;;;12.65;;
28652;SDS011;15844;48.954;9.442;2022-07-10T16:19:55;13.38;;;12.98;;
28652;SDS011;15844;48.954;9.442;2022-07-10T16:22:57;13.55;;;13.05;;
28652;SDS011;15844;48.954;9.442;2022-07-10T16:25:57;15.20;;;14.70;;
28652;SDS011;15844;48.954;9.442;2022-07-10T16:29:00;14.57;;;14.07;;
28652;SDS011;15844;48.954;9.442;2022-07-10T16:32:00;14.00;;;13.50;;
28652;SDS011;15844;48.954;9.442;2022-07-10T16:35:00;14.35;;;13.80;;
28652;SDS011;15844;48.954;9.442;2022-07-10T16:38:01;15.30;;;14.80;;
28652;SDS011;15844;48.954;9.442;2022-07-10T16:41:01;17.23;;;16.50;;
28652;SDS011;15844;48.954;9.442;2022-07-10T16:44:01;17.20;;;16.52;;
28652;SDS011;15844;48.954;9.442;2022-07-10T16:47:02;20.15;;;19.17;;
28652;SDS011;15844;48.954;9.442;2022-07-10T16:50:02;21.00;;;20.23;;
28652;SDS011;15844;48.954;9.442;2022-07-10T16:53:03;19.15;;;18.35;;
28652;SDS011;15844;48.954;9.442;2022-07-10T16:56:04;16.15;;;15.63;;
28652;SDS011;15844;48.954;9.442;2022-07-10T16:59:05;15.27;;;14.73;;
28652;SDS011;15844;48.954;9.442;2022-07-10T17:02:06;16.25;;;15.65;;
28652;SDS011;15844;48.954;9.442;2022-07-10T17:05:06;12.55;;;12.23;;
28652;SDS011;15844;48.954;9.442;2022-07-10T17:08:08;11.32;;;10.90;;
28652;SDS011;15844;48.954;9.442;2022-07-10T17:11:09;11.35;;;11.05;;
28652;SDS011;15844;48.954;9.442;2022-07-10T17:14:10;10.18;;;9.88;;
28652;SDS011;15844;48.954;9.442;2022-07-10T17:17:10;12.05;;;11.50;;
28652;SDS011;15844;48.954;9.442;2022-07-10T17:20:10;16.75;;;15.65;;
28652;SDS011;15844;48.954;9.442;2022-07-10T17:23:11;19.17;;;17.77;;
28652;SDS011;15844;48.954;9.442;2022-07-10T17:26:12;14.27;;;13.52;;
28652;SDS011;15844;48.954;9.442;2022-07-10T17:29:12;13.45;;;12.98;;
28652;SDS011;15844;48.954;9.442;2022-07-10T17:32:13;14.88;;;14.27;;
28652;SDS011;15844;48.954;9.442;2022-07-10T17:35:13;19.48;;;18.52;;
28652;SDS011;15844;48.954;9.442;2022-07-10T17:38:14;22.52;;;21.70;;
28652;SDS011;15844;48.954;9.442;2022-07-10T17:41:18;21.83;;;20.83;;
28652;SDS011;15844;48.954;9.442;2022-07-10T17:44:19;23.95;;;22.88;;
28652;SDS011;15844;48.954;9.442;2022-07-10T17:47:23;27.42;;;26.27;;